createdAt,value
2023-01-04T00:01:54.324Z,8.77
2023-01-04T00:04:20.918Z,8.10
2023-01-04T00:06:47.387Z,8.20
2023-01-04T00:09:13.883Z,7.30
2023-01-04T00:11:40.371Z,7.40
2023-01-04T00:14:06.829Z,6.80
2023-01-04T00:16:33.337Z,7.10
2023-01-04T00:18:59.869Z,6.57
2023-01-04T00:21:31.095Z,6.07
2023-01-04T00:24:00.742Z,6.63
2023-01-04T00:26:33.296Z,6.63
2023-01-04T00:29:02.898Z,6.53
2023-01-04T00:31:30.049Z,5.60
2023-01-04T00:33:58.109Z,5.37
2023-01-04T00:36:24.928Z,5.60
2023-01-04T00:39:10.428Z,5.33
2023-01-04T00:42:02.139Z,5.27
2023-01-04T00:44:24.473Z,5.20
2023-01-04T00:46:51.044Z,4.93
2023-01-04T00:49:17.527Z,4.90
2023-01-04T00:51:44.018Z,4.20
2023-01-04T00:54:14.222Z,4.47
2023-01-04T00:56:40.755Z,3.57
2023-01-04T00:59:07.291Z,3.67
2023-01-04T01:01:34.717Z,3.73
2023-01-04T01:04:04.111Z,3.83
2023-01-04T01:06:31.678Z,3.53
2023-01-04T01:08:58.998Z,3.60
2023-01-04T01:11:25.874Z,2.43
2023-01-04T01:13:52.364Z,2.80
2023-01-04T01:16:44.475Z,2.83
2023-01-04T01:19:07.875Z,2.50
2023-01-04T01:21:34.489Z,2.50
2023-01-04T01:24:00.973Z,2.73
2023-01-04T01:26:27.591Z,2.37
2023-01-04T01:28:54.049Z,2.40
2023-01-04T01:31:23.545Z,2.47
2023-01-04T01:33:51.190Z,2.50
2023-01-04T01:36:19.036Z,2.60
2023-01-04T01:38:46.063Z,2.57
2023-01-04T01:41:20.585Z,2.23
2023-01-04T01:43:53.566Z,2.50
2023-01-04T01:46:24.351Z,2.47
2023-01-04T01:48:52.699Z,2.37
2023-01-04T01:51:19.383Z,1.67
2023-01-04T01:53:49.905Z,2.20
2023-01-04T01:56:17.822Z,2.10
2023-01-04T01:58:46.925Z,2.43
2023-01-04T02:01:13.538Z,2.30
2023-01-04T02:03:42.201Z,2.13
2023-01-04T02:06:11.646Z,1.70
2023-01-04T02:08:39.377Z,2.10
2023-01-04T02:11:06.202Z,2.10
2023-01-04T02:13:53.171Z,2.47
2023-01-04T02:16:27.084Z,2.23
2023-01-04T02:19:04.081Z,2.10
2023-01-04T02:22:01.158Z,1.90
2023-01-04T02:24:43.318Z,2.00
2023-01-04T02:27:33.630Z,2.13
2023-01-04T02:30:39.070Z,2.10
2023-01-04T02:33:28.046Z,2.00
2023-01-04T02:36:06.577Z,1.90
2023-01-04T02:39:01.954Z,2.30
2023-01-04T02:41:34.640Z,2.30
2023-01-04T02:44:29.916Z,2.20
2023-01-04T02:47:48.323Z,1.80
2023-01-04T02:50:32.028Z,1.90
2023-01-04T02:53:06.401Z,1.73
2023-01-04T02:55:48.271Z,2.07
2023-01-04T02:59:16.813Z,2.00
2023-01-04T03:02:14.363Z,2.30
2023-01-04T03:05:05.635Z,2.20
2023-01-04T03:07:47.116Z,2.10
2023-01-04T03:10:36.162Z,2.13
2023-01-04T03:13:10.740Z,2.20
2023-01-04T03:15:38.894Z,2.40
2023-01-04T03:18:18.364Z,2.20
2023-01-04T03:20:46.952Z,2.07
2023-01-04T03:23:34.777Z,1.80
2023-01-04T03:26:27.538Z,2.73
2023-01-04T03:29:14.802Z,2.93
2023-01-04T03:32:03.832Z,2.30
2023-01-04T03:34:48.970Z,2.33
2023-01-04T03:37:35.270Z,3.03
2023-01-04T03:40:32.034Z,2.23
2023-01-04T03:43:36.467Z,2.20
2023-01-04T03:46:47.831Z,2.83
2023-01-04T03:49:25.533Z,2.93
2023-01-04T03:51:54.419Z,2.70
2023-01-04T03:54:25.164Z,2.67
2023-01-04T03:56:52.379Z,2.87
2023-01-04T03:59:18.876Z,3.10
2023-01-04T04:01:45.533Z,2.40
2023-01-04T04:04:30.711Z,2.30
2023-01-04T04:07:16.019Z,2.63
2023-01-04T04:09:42.637Z,2.80
2023-01-04T04:12:09.198Z,2.50
2023-01-04T04:14:35.875Z,2.87
2023-01-04T04:17:02.410Z,2.90
2023-01-04T04:19:28.918Z,2.93
2023-01-04T04:21:55.422Z,3.27
2023-01-04T04:24:24.628Z,3.57
2023-01-04T04:26:52.039Z,3.70
2023-01-04T04:29:18.485Z,2.77
2023-01-04T04:31:45.033Z,3.70
2023-01-04T04:34:11.596Z,2.90
2023-01-04T04:36:38.245Z,2.40
2023-01-04T04:39:04.898Z,2.73
2023-01-04T04:41:41.456Z,2.83
2023-01-04T04:44:19.156Z,2.50
2023-01-04T04:46:46.758Z,2.90
2023-01-04T04:49:14.075Z,3.03
2023-01-04T04:51:41.657Z,2.80
2023-01-04T04:54:10.164Z,3.00
2023-01-04T04:56:37.223Z,3.50
2023-01-04T04:59:05.037Z,3.00
2023-01-04T05:01:31.831Z,3.07
2023-01-04T05:03:58.395Z,2.87
2023-01-04T05:06:24.960Z,3.80
2023-01-04T05:08:51.481Z,2.90
2023-01-04T05:11:38.039Z,3.50
2023-01-04T05:14:04.526Z,3.43
2023-01-04T05:16:31.052Z,3.67
2023-01-04T05:18:57.645Z,3.37
2023-01-04T05:21:24.107Z,3.47
2023-01-04T05:23:50.551Z,3.47
2023-01-04T05:26:17.091Z,3.23
2023-01-04T05:28:46.992Z,3.20
2023-01-04T05:31:16.448Z,3.63
2023-01-04T05:33:42.967Z,3.23
2023-01-04T05:36:09.436Z,3.73
2023-01-04T05:38:35.986Z,3.60
2023-01-04T05:41:02.429Z,3.37
2023-01-04T05:43:28.874Z,4.00
2023-01-04T05:45:56.796Z,3.20
2023-01-04T05:48:24.438Z,3.23
2023-01-04T05:50:53.233Z,3.30
2023-01-04T05:53:19.821Z,4.23
2023-01-04T05:55:48.752Z,3.87
2023-01-04T05:58:15.812Z,3.60
2023-01-04T06:00:42.322Z,4.10
2023-01-04T06:03:08.954Z,3.57
2023-01-04T06:05:35.520Z,3.20
2023-01-04T06:08:01.991Z,3.13
2023-01-04T06:10:28.455Z,3.00
2023-01-04T06:12:54.948Z,3.17
2023-01-04T06:15:21.566Z,3.17
2023-01-04T06:17:48.022Z,3.30
2023-01-04T06:20:14.458Z,2.87
2023-01-04T06:22:41.572Z,3.37
2023-01-04T06:25:09.106Z,3.07
2023-01-04T06:27:35.738Z,3.90
2023-01-04T06:30:02.252Z,2.77
2023-01-04T06:32:28.758Z,3.20
2023-01-04T06:34:55.237Z,3.13
2023-01-04T06:37:21.872Z,3.50
2023-01-04T06:39:48.320Z,2.50
2023-01-04T06:42:33.517Z,2.77
2023-01-04T06:45:00.024Z,3.20
2023-01-04T06:47:26.531Z,2.53
2023-01-04T06:49:53.055Z,2.13
2023-01-04T06:52:19.694Z,3.37
2023-01-04T06:54:46.260Z,2.87
2023-01-04T06:57:13.535Z,2.50
2023-01-04T06:59:40.002Z,3.30
2023-01-04T07:02:06.803Z,3.33
2023-01-04T07:04:33.412Z,2.40
2023-01-04T07:06:59.939Z,2.27
2023-01-04T07:09:26.430Z,2.60
2023-01-04T07:11:52.967Z,2.23
2023-01-04T07:14:19.487Z,2.60
2023-01-04T07:16:46.051Z,2.10
2023-01-04T07:19:12.632Z,2.33
2023-01-04T07:21:39.104Z,2.90
2023-01-04T07:24:05.745Z,2.20
2023-01-04T07:26:32.307Z,2.07
2023-01-04T07:29:17.377Z,2.10
2023-01-04T07:31:48.762Z,2.23
2023-01-04T07:34:17.027Z,2.20
2023-01-04T07:36:43.608Z,2.40
2023-01-04T07:39:12.561Z,2.20
2023-01-04T07:41:40.607Z,2.73
2023-01-04T07:44:08.450Z,2.40
2023-01-04T07:46:35.891Z,2.33
2023-01-04T07:49:02.609Z,2.67
2023-01-04T07:51:30.668Z,2.53
2023-01-04T07:53:57.647Z,2.50
2023-01-04T07:56:24.069Z,2.70
2023-01-04T07:58:50.928Z,3.30
2023-01-04T08:01:19.080Z,3.20
2023-01-04T08:03:46.423Z,4.03
2023-01-04T08:06:14.405Z,3.87
2023-01-04T08:08:41.573Z,3.83
2023-01-04T08:11:11.118Z,4.30
2023-01-04T08:13:37.699Z,3.93
2023-01-04T08:16:04.671Z,4.00
2023-01-04T08:18:31.193Z,4.73
2023-01-04T08:21:06.464Z,4.90
2023-01-04T08:23:33.622Z,4.97
2023-01-04T08:26:11.367Z,4.30
2023-01-04T08:28:38.119Z,4.17
2023-01-04T08:31:11.074Z,4.10
2023-01-04T08:33:38.669Z,4.90
2023-01-04T08:36:08.327Z,4.93
2023-01-04T08:41:47.340Z,4.90
2023-01-04T08:44:07.926Z,6.00
2023-01-04T08:46:34.429Z,4.87
2023-01-04T08:49:00.902Z,4.30
2023-01-04T08:51:27.387Z,5.23
2023-01-04T08:53:53.818Z,4.83
2023-01-04T08:56:20.283Z,4.97
2023-01-04T08:58:46.708Z,4.67
2023-01-04T09:01:13.298Z,4.97
2023-01-04T09:03:39.849Z,4.20
2023-01-04T09:06:08.663Z,4.30
2023-01-04T09:08:36.256Z,4.00
2023-01-04T09:11:06.409Z,3.90
2023-01-04T09:13:33.989Z,4.20
2023-01-04T09:16:07.044Z,3.33
2023-01-04T09:18:34.162Z,3.83
2023-01-04T09:21:05.992Z,3.40
2023-01-04T09:23:34.023Z,3.30
2023-01-04T09:26:09.718Z,3.73
2023-01-04T09:28:36.728Z,3.00
2023-01-04T09:31:24.151Z,3.17
2023-01-04T09:36:37.308Z,2.57
2023-01-04T09:39:03.961Z,2.70
2023-01-04T09:41:37.756Z,2.77
2023-01-04T09:44:19.779Z,2.67
2023-01-04T09:47:04.164Z,2.60
2023-01-04T09:49:39.398Z,2.93
2023-01-04T09:52:20.529Z,2.17
2023-01-04T09:54:58.979Z,2.33
2023-01-04T09:57:33.102Z,2.53
2023-01-04T10:00:08.691Z,2.10
2023-01-04T10:03:12.668Z,1.80
2023-01-04T10:05:40.301Z,1.80
2023-01-04T10:08:15.413Z,2.20
2023-01-04T10:11:08.058Z,2.10
2023-01-04T10:13:47.073Z,1.70
2023-01-04T10:16:15.135Z,1.80
2023-01-04T10:19:28.670Z,1.80
2023-01-04T10:21:49.811Z,2.03
2023-01-04T10:24:25.683Z,1.47
2023-01-04T10:26:59.482Z,1.80
2023-01-04T10:29:57.064Z,1.97
2023-01-04T10:32:39.620Z,1.47
2023-01-04T10:35:21.780Z,1.93
2023-01-04T10:37:58.760Z,1.67
2023-01-04T10:40:26.553Z,1.50
2023-01-04T10:43:02.831Z,1.53
2023-01-04T10:45:46.408Z,1.30
2023-01-04T10:48:20.932Z,1.50
2023-01-04T10:50:59.805Z,1.37
2023-01-04T10:53:41.450Z,1.30
2023-01-04T10:56:23.982Z,1.20
2023-01-04T10:59:04.404Z,1.20
2023-01-04T11:01:59.532Z,1.17
2023-01-04T11:04:32.802Z,1.23
2023-01-04T11:07:06.632Z,1.00
2023-01-04T11:09:35.482Z,1.20
2023-01-04T11:12:02.560Z,1.20
2023-01-04T11:14:35.135Z,1.10
2023-01-04T11:17:07.445Z,1.20
2023-01-04T11:19:34.534Z,1.37
2023-01-04T11:22:20.856Z,1.33
2023-01-04T11:25:33.080Z,1.20
2023-01-04T11:27:48.424Z,1.10
2023-01-04T11:30:18.095Z,1.10
2023-01-04T11:32:51.475Z,1.20
2023-01-04T11:35:42.225Z,1.30
2023-01-04T11:38:17.357Z,0.87
2023-01-04T11:41:06.234Z,1.03
2023-01-04T11:43:39.633Z,0.97
2023-01-04T11:46:24.301Z,1.13
2023-01-04T11:48:52.149Z,0.97
2023-01-04T11:51:28.674Z,1.20
2023-01-04T11:54:02.252Z,1.10
2023-01-04T11:56:30.893Z,1.30
2023-01-04T11:59:24.877Z,1.03
2023-01-04T12:01:53.141Z,1.00
2023-01-04T12:04:25.102Z,0.93
2023-01-04T12:07:07.732Z,1.00
2023-01-04T12:09:34.286Z,0.97
2023-01-04T12:12:01.442Z,0.90
2023-01-04T12:14:32.495Z,1.00
2023-01-04T12:17:17.577Z,0.97
2023-01-04T12:19:44.780Z,1.13
2023-01-04T12:22:23.344Z,1.00
2023-01-04T12:24:53.936Z,1.10
2023-01-04T12:27:21.863Z,0.90
2023-01-04T12:29:48.281Z,1.10
2023-01-04T12:32:15.292Z,0.80
2023-01-04T12:34:44.094Z,1.10
2023-01-04T12:37:12.215Z,1.00
2023-01-04T12:39:44.281Z,1.07
2023-01-04T12:42:21.578Z,1.30
2023-01-04T12:44:51.716Z,1.30
2023-01-04T12:47:36.931Z,1.50
2023-01-04T12:50:13.554Z,1.47
2023-01-04T12:55:43.852Z,1.70
2023-01-04T12:58:49.867Z,1.70
2023-01-04T13:01:28.502Z,2.20
2023-01-04T13:04:04.694Z,2.10
2023-01-04T13:06:35.938Z,2.43
2023-01-04T13:09:02.535Z,2.20
2023-01-04T13:11:48.282Z,2.60
2023-01-04T13:14:21.742Z,2.43
2023-01-04T13:17:06.586Z,2.77
2023-01-04T13:19:33.105Z,2.57
2023-01-04T13:21:59.773Z,2.43
2023-01-04T13:24:36.888Z,3.10
2023-01-04T13:27:10.271Z,2.70
2023-01-04T13:29:36.853Z,2.60
2023-01-04T13:32:04.227Z,2.40
2023-01-04T13:34:52.243Z,2.30
2023-01-04T13:37:27.414Z,2.47
2023-01-04T13:40:15.553Z,3.07
2023-01-04T13:42:43.534Z,2.77
2023-01-04T13:45:51.538Z,2.80
2023-01-04T13:48:21.325Z,2.83
2023-01-04T13:51:05.785Z,3.30
2023-01-04T13:53:32.869Z,2.67
2023-01-04T13:56:03.358Z,2.90
2023-01-04T13:58:31.851Z,3.50
2023-01-04T14:01:14.562Z,3.13
2023-01-04T14:03:51.506Z,3.37
2023-01-04T14:06:47.475Z,3.50
2023-01-04T14:09:17.188Z,3.27
2023-01-04T14:12:09.104Z,4.33
2023-01-04T14:14:46.897Z,3.60
2023-01-04T14:17:21.987Z,3.00
2023-01-04T14:19:54.546Z,3.23
2023-01-04T14:22:21.038Z,3.80
2023-01-04T14:27:45.459Z,3.60
2023-01-04T14:30:17.915Z,3.87
2023-01-04T14:32:59.138Z,4.00
2023-01-04T14:35:27.326Z,3.80
2023-01-04T14:37:54.431Z,3.70
2023-01-04T14:40:27.123Z,3.40
2023-01-04T14:42:54.208Z,3.73
2023-01-04T14:45:20.675Z,3.70
2023-01-04T14:47:47.214Z,3.90
2023-01-04T14:50:14.386Z,3.93
2023-01-04T14:52:40.909Z,4.13
2023-01-04T14:55:07.762Z,3.97
2023-01-04T14:57:38.125Z,3.73
2023-01-04T15:00:05.003Z,3.60
2023-01-04T15:02:33.751Z,3.43
2023-01-04T15:05:00.512Z,3.57
2023-01-04T15:07:36.104Z,2.83
2023-01-04T15:10:11.058Z,3.73
2023-01-04T15:12:37.631Z,3.67
2023-01-04T15:15:04.518Z,3.70
2023-01-04T15:17:31.106Z,4.40
2023-01-04T15:19:57.588Z,3.80
2023-01-04T15:22:24.035Z,4.00
2023-01-04T15:24:50.643Z,4.17
2023-01-04T15:27:17.090Z,4.10
2023-01-04T15:29:43.550Z,4.33
2023-01-04T15:32:10.050Z,4.37
2023-01-04T15:34:39.587Z,4.67
2023-01-04T15:37:10.004Z,5.17
2023-01-04T15:39:36.493Z,4.17
2023-01-04T15:42:21.608Z,4.20
2023-01-04T15:44:48.087Z,4.73
2023-01-04T15:47:14.606Z,4.77
2023-01-04T15:49:41.092Z,5.17
2023-01-04T15:52:07.538Z,4.70
2023-01-04T15:54:34.028Z,4.93
2023-01-04T15:57:00.479Z,4.40
2023-01-04T15:59:27.013Z,4.50
2023-01-04T16:01:53.620Z,4.70
2023-01-04T16:04:20.194Z,4.67
2023-01-04T16:06:46.647Z,5.30
2023-01-04T16:09:13.119Z,4.73
2023-01-04T16:12:02.487Z,5.10
2023-01-04T16:14:29.022Z,4.87
2023-01-04T16:16:56.376Z,4.53
2023-01-04T16:19:22.874Z,5.07
2023-01-04T16:21:49.303Z,4.63
2023-01-04T16:24:44.771Z,4.77
2023-01-04T16:27:02.220Z,4.57
2023-01-04T16:29:28.692Z,4.50
2023-01-04T16:31:55.226Z,4.80
2023-01-04T16:34:21.739Z,4.67
2023-01-04T16:36:51.215Z,4.20
2023-01-04T16:39:17.748Z,4.77
2023-01-04T16:41:44.308Z,4.50
2023-01-04T16:44:13.419Z,5.43
2023-01-04T16:46:40.546Z,5.10
2023-01-04T16:49:12.838Z,4.03
2023-01-04T16:51:40.534Z,5.13
2023-01-04T16:54:09.771Z,5.60
2023-01-04T16:56:37.216Z,5.70
2023-01-04T16:59:03.985Z,5.77
2023-01-04T17:01:33.042Z,5.27
2023-01-04T17:04:01.851Z,4.80
2023-01-04T17:06:30.218Z,4.57
2023-01-04T17:08:57.654Z,5.00
2023-01-04T17:14:13.541Z,5.07
2023-01-04T17:16:41.039Z,4.63
2023-01-04T17:19:07.568Z,3.53
2023-01-04T17:21:35.226Z,4.43
2023-01-04T17:24:02.564Z,4.73
2023-01-04T17:26:30.692Z,5.57
2023-01-04T17:28:58.429Z,4.90
2023-01-04T17:31:31.440Z,5.27
2023-01-04T17:33:58.073Z,5.93
2023-01-04T17:36:24.683Z,4.67
2023-01-04T17:38:51.456Z,5.27
2023-01-04T17:41:20.425Z,5.90
2023-01-04T17:43:48.701Z,4.57
2023-01-04T17:46:22.579Z,5.67
2023-01-04T17:48:58.964Z,5.40
2023-01-04T17:51:37.697Z,5.73
2023-01-04T17:54:05.886Z,5.77
2023-01-04T17:56:37.705Z,5.70
2023-01-04T17:59:06.807Z,4.60
2023-01-04T18:01:34.519Z,5.80
2023-01-04T18:04:02.110Z,6.13
2023-01-04T18:06:31.148Z,5.73
2023-01-04T18:08:58.795Z,6.13
2023-01-04T18:11:25.438Z,5.30
2023-01-04T18:13:53.213Z,6.20
2023-01-04T18:16:26.967Z,5.53
2023-01-04T18:19:00.439Z,5.60
2023-01-04T18:21:30.503Z,5.37
2023-01-04T18:24:34.900Z,6.37
2023-01-04T18:29:32.907Z,6.50
2023-01-04T18:32:00.406Z,6.43
2023-01-04T18:34:27.269Z,6.37
2023-01-04T18:36:54.353Z,4.70
2023-01-04T18:39:21.238Z,6.20
2023-01-04T18:41:47.728Z,6.23
2023-01-04T18:47:02.810Z,5.13
2023-01-04T18:49:29.405Z,5.67
2023-01-04T18:51:55.893Z,5.00
2023-01-04T18:54:22.384Z,6.07
2023-01-04T18:56:49.293Z,6.00
2023-01-04T18:59:19.104Z,6.60
2023-01-04T19:01:46.074Z,4.83
2023-01-04T19:04:15.568Z,6.63
2023-01-04T19:06:43.009Z,5.83
2023-01-04T19:09:10.234Z,5.30
2023-01-04T19:11:36.851Z,6.27
2023-01-04T19:14:03.806Z,5.77
2023-01-04T19:16:31.461Z,4.90
2023-01-04T19:19:02.707Z,6.17
2023-01-04T19:21:29.190Z,5.73
2023-01-04T19:23:56.308Z,5.10
2023-01-04T19:26:23.290Z,6.33
2023-01-04T19:28:51.085Z,6.00
2023-01-04T19:31:20.229Z,5.97
2023-01-04T19:33:46.954Z,6.20
2023-01-04T19:36:18.353Z,6.27
2023-01-04T19:38:44.915Z,6.50
2023-01-04T19:41:27.766Z,5.53
2023-01-04T19:44:05.282Z,6.80
2023-01-04T19:46:32.655Z,6.17
2023-01-04T19:48:59.286Z,5.30
2023-01-04T19:51:27.968Z,6.03
2023-01-04T19:53:55.921Z,6.50
2023-01-04T19:56:22.471Z,6.50
2023-01-04T19:58:49.070Z,6.20
2023-01-04T20:01:18.203Z,5.57
2023-01-04T20:03:45.304Z,6.27
2023-01-04T20:06:12.828Z,5.27
2023-01-04T20:08:40.457Z,5.80
2023-01-04T20:11:07.411Z,6.63
2023-01-04T20:13:34.565Z,5.30
2023-01-04T20:16:01.874Z,6.17
2023-01-04T20:18:28.427Z,6.17
2023-01-04T20:20:56.284Z,6.50
2023-01-04T20:23:22.974Z,6.17
2023-01-04T20:25:52.366Z,4.90
2023-01-04T20:28:20.890Z,4.27
2023-01-04T20:30:47.867Z,6.50
2023-01-04T20:33:15.200Z,5.90
2023-01-04T20:35:43.325Z,6.20
2023-01-04T20:38:11.493Z,5.87
2023-01-04T20:40:38.829Z,6.10
2023-01-04T20:43:27.249Z,6.27
2023-01-04T20:45:53.768Z,5.67
2023-01-04T20:48:20.520Z,6.37
2023-01-04T20:50:46.956Z,5.27
2023-01-04T20:53:13.643Z,5.27
2023-01-04T20:55:44.107Z,5.37
2023-01-04T20:58:13.976Z,4.90
2023-01-04T21:00:41.515Z,5.17
2023-01-04T21:03:10.434Z,5.50
2023-01-04T21:05:41.603Z,4.90
2023-01-04T21:08:08.537Z,5.13
2023-01-04T21:10:36.200Z,5.97
2023-01-04T21:13:03.975Z,4.40
2023-01-04T21:15:31.275Z,5.57
2023-01-04T21:17:57.928Z,5.93
2023-01-04T21:20:25.135Z,6.23
2023-01-04T21:22:51.581Z,7.13
2023-01-04T21:25:18.436Z,5.57
2023-01-04T21:27:44.919Z,5.20
2023-01-04T21:30:12.087Z,6.20
2023-01-04T21:32:38.651Z,5.87
2023-01-04T21:35:05.579Z,5.90
2023-01-04T21:37:32.049Z,6.33
2023-01-04T21:39:58.636Z,6.50
2023-01-04T21:42:25.308Z,5.47
2023-01-04T21:44:52.180Z,6.60
2023-01-04T21:47:18.652Z,6.63
2023-01-04T21:49:45.868Z,6.30
2023-01-04T21:52:12.839Z,5.97
2023-01-04T21:54:39.581Z,5.30
2023-01-04T21:57:08.183Z,6.60
2023-01-04T21:59:35.989Z,5.03
2023-01-04T22:02:02.831Z,6.23
2023-01-04T22:04:29.511Z,4.63
2023-01-04T22:06:56.052Z,6.20
2023-01-04T22:09:25.351Z,5.20
2023-01-04T22:11:52.075Z,4.90
2023-01-04T22:14:19.523Z,4.97
2023-01-04T22:16:46.576Z,6.33
2023-01-04T22:19:14.467Z,5.70
2023-01-04T22:21:42.022Z,6.47
2023-01-04T22:24:15.171Z,5.13
2023-01-04T22:26:42.487Z,6.33
2023-01-04T22:29:10.683Z,5.60
2023-01-04T22:31:37.905Z,5.77
2023-01-04T22:34:04.923Z,5.70
2023-01-04T22:36:31.920Z,4.97
2023-01-04T22:38:58.985Z,5.60
2023-01-04T22:41:28.306Z,5.50
2023-01-04T22:43:57.421Z,5.90
2023-01-04T22:46:25.231Z,6.83
2023-01-04T22:48:52.259Z,5.40
2023-01-04T22:51:19.954Z,4.87
2023-01-04T22:53:47.917Z,5.73
2023-01-04T22:56:19.382Z,3.77
2023-01-04T22:58:52.472Z,4.80
2023-01-04T23:01:20.786Z,4.80
2023-01-04T23:03:47.713Z,4.97
2023-01-04T23:06:14.278Z,5.73
2023-01-04T23:08:41.024Z,5.00
2023-01-04T23:11:09.027Z,5.70
2023-01-04T23:13:35.704Z,3.50
2023-01-04T23:16:06.776Z,3.93
2023-01-04T23:18:34.652Z,5.43
2023-01-04T23:21:01.791Z,4.60
2023-01-04T23:23:28.781Z,5.57
2023-01-04T23:25:55.556Z,4.73
2023-01-04T23:28:22.403Z,5.20
2023-01-04T23:30:49.539Z,4.40
2023-01-04T23:33:16.064Z,5.13
2023-01-04T23:35:43.170Z,5.00
2023-01-04T23:38:09.645Z,4.43
2023-01-04T23:40:36.107Z,5.13
2023-01-04T23:43:02.552Z,6.00
2023-01-04T23:45:29.053Z,4.10
2023-01-04T23:47:55.634Z,4.50
2023-01-04T23:50:22.234Z,4.53
2023-01-04T23:52:48.875Z,5.43
2023-01-04T23:55:15.376Z,4.50
2023-01-04T23:57:41.866Z,4.37
